Mercury Ocean — 3ERR5 — position and weather

sailwx.info

Track history (hours):
 
Tides and Currents Weather Stations Pressure Air Temp Water Temp Dewpoint Dewpoint Depression Visibility Wind Speed Wind Dir Waves Ship Positions

Mercury Ocean

Last reported at 2017-Nov-29 08:06 UTC. Time now 2018-Feb-21 19:38 UTC.
Position N 36°15' E 027°00'.
Warning: this ship's position is months out of date.

Length 190 m; draft 12.3 m.

Type: Cargo ship. MMSI: 370149000.

Date/timePositionNaut miles runAvg speedWind from/ knotsBaromVisibWave heightAir tempDewpointWater temp
2017-Nov-29 08:06N 36°15' E 027°00'112.3
2017-Nov-29 08:00N 36°16' E 026°59'812.1
2017-Nov-29 07:19N 36°22' E 026°52'411.9
2017-Nov-29 06:59N 36°25' E 026°49'611.8
2017-Nov-29 06:30N 36°29' E 026°44'612.0
2017-Nov-29 06:00N 36°33' E 026°39'612.2
2017-Nov-29 05:30N 36°38' E 026°34'612.1
2017-Nov-29 05:00N 36°42' E 026°29'612.1
2017-Nov-29 04:30N 36°47' E 026°24'612.2
2017-Nov-29 03:59N 36°52' E 026°19'612.2
2017-Nov-29 03:30N 36°56' E 026°14'612.4
2017-Nov-29 03:00N 36°60' E 026°08'612.1
2017-Nov-29 02:30N 37°04' E 026°03'612.2
2017-Nov-29 02:00N 37°08' E 025°57'612.5
2017-Nov-29 01:30N 37°12' E 025°51'611.7
2017-Nov-29 01:00N 37°18' E 025°50'612.2
2017-Nov-29 00:30N 37°24' E 025°50'612.2
2017-Nov-29 00:00N 37°30' E 025°49'611.9
2017-Nov-28 23:30N 37°36' E 025°49'611.7
2017-Nov-28 22:59N 37°42' E 025°49'611.9
2017-Nov-28 22:30N 37°48' E 025°49'711.9
2017-Nov-28 21:57N 37°54' E 025°46'  
2017-Nov-25 22:15N 44°24' E 037°18'411.9
2017-Nov-25 21:56N 44°25' E 037°23'511.8
2017-Nov-25 21:30N 44°28' E 037°29'612.0
2017-Nov-25 21:00N 44°30' E 037°37'612.1
2017-Nov-25 20:31N 44°34' E 037°44'611.4
2017-Nov-25 20:00N 44°38' E 037°49'3 5.8
2017-Nov-25 19:30N 44°40' E 037°51'0 0.3
2017-Nov-25 18:59N 44°41' E 037°51'0 0.0
2017-Nov-25 18:29N 44°41' E 037°51'0 0.0
2017-Nov-25 17:59N 44°41' E 037°51'0 0.0
2017-Nov-25 17:29N 44°41' E 037°51'0 0.0
2017-Nov-25 16:59N 44°41' E 037°51'0 0.0
2017-Nov-25 16:29N 44°41' E 037°51'0 0.0
2017-Nov-25 15:59N 44°41' E 037°51'0 0.0
2017-Nov-25 15:29N 44°41' E 037°51'0 0.0
2017-Nov-25 14:59N 44°41' E 037°51'0 0.0
2017-Nov-25 14:29N 44°41' E 037°51'0 0.0
2017-Nov-25 13:59N 44°41' E 037°51'0 0.0
2017-Nov-25 13:29N 44°41' E 037°51'0 0.0
2017-Nov-25 12:59N 44°41' E 037°51'0 0.0
2017-Nov-25 12:29N 44°41' E 037°51'0 0.0
2017-Nov-25 11:59N 44°41' E 037°51'0 0.0
2017-Nov-25 11:29N 44°41' E 037°51'0 0.0
2017-Nov-25 10:59N 44°41' E 037°51'0 0.1
2017-Nov-25 10:29N 44°41' E 037°51'0 0.2
2017-Nov-25 09:59N 44°41' E 037°51'0 0.2
2017-Nov-25 09:29N 44°40' E 037°51'0 0.1
2017-Nov-25 08:59N 44°40' E 037°51'0 0.0
2017-Nov-25 08:29N 44°40' E 037°51'0 0.0
2017-Nov-25 07:59N 44°40' E 037°51'0 0.0
2017-Nov-25 07:29N 44°40' E 037°51'0 0.0
2017-Nov-25 06:59N 44°40' E 037°51'0 0.0
2017-Nov-25 06:29N 44°40' E 037°51'0 0.1
2017-Nov-25 05:59N 44°40' E 037°51'0 0.1
2017-Nov-25 05:29N 44°40' E 037°51'0 0.2
2017-Nov-25 04:59N 44°40' E 037°51'0 0.1
2017-Nov-25 04:29N 44°41' E 037°51'0 0.2
2017-Nov-25 03:59N 44°41' E 037°51'0 0.1
2017-Nov-25 03:30N 44°41' E 037°51'1 2.0
2017-Nov-25 03:01N 44°41' E 037°50'3 5.4
2017-Nov-25 02:30N 44°44' E 037°48'1 1.0
2017-Nov-25 01:59N 44°44' E 037°47'0 0.0
2017-Nov-25 01:30N 44°44' E 037°47'0 0.0
2017-Nov-25 01:00N 44°44' E 037°47'0 0.0
2017-Nov-25 00:27N 44°44' E 037°47'0 0.0
2017-Nov-25 00:00N 44°44' E 037°47'0 0.0
2017-Nov-24 23:29N 44°44' E 037°47'0 0.0
2017-Nov-24 22:56N 44°44' E 037°47'0 0.0
2017-Nov-24 22:30N 44°44' E 037°47'0 0.0
2017-Nov-24 21:59N 44°44' E 037°47'0 0.0
2017-Nov-24 21:29N 44°44' E 037°47'0 0.0
2017-Nov-24 21:00N 44°44' E 037°47'0 0.0
2017-Nov-24 20:30N 44°44' E 037°47'0 0.0
2017-Nov-24 19:59N 44°44' E 037°47'0 0.0
2017-Nov-24 19:29N 44°44' E 037°47'0 0.0
2017-Nov-24 18:59N 44°44' E 037°47'0 0.0
2017-Nov-24 18:29N 44°44' E 037°47'0 0.0
2017-Nov-24 17:56N 44°44' E 037°47'0 0.0
2017-Nov-24 17:29N 44°44' E 037°47'0 0.0
2017-Nov-24 16:59N 44°44' E 037°47'0 0.0
2017-Nov-24 16:29N 44°44' E 037°47'0 0.0
2017-Nov-24 16:00N 44°44' E 037°47'0 0.0
2017-Nov-24 15:29N 44°44' E 037°47'0 0.0
2017-Nov-24 14:59N 44°44' E 037°47'0 0.0
2017-Nov-24 14:30N 44°44' E 037°47'0 0.0
2017-Nov-24 13:59N 44°44' E 037°47'0 0.0
2017-Nov-24 13:29N 44°44' E 037°47'0 0.0
2017-Nov-24 12:59N 44°44' E 037°47'0 0.0
2017-Nov-24 12:30N 44°44' E 037°47'0 0.0
2017-Nov-24 12:00N 44°44' E 037°47'0 0.0
2017-Nov-24 11:29N 44°44' E 037°47'0 0.0
2017-Nov-24 11:00N 44°44' E 037°47'0 0.0
2017-Nov-24 10:30N 44°44' E 037°47'0 0.0
2017-Nov-24 09:59N 44°44' E 037°47'0 0.0
2017-Nov-24 09:29N 44°44' E 037°47'0 0.0
2017-Nov-24 09:00N 44°44' E 037°47'0 0.0
2017-Nov-24 08:30N 44°44' E 037°47'0 0.0
2017-Nov-24 07:59N 44°44' E 037°47'0 0.0
2017-Nov-24 07:30N 44°44' E 037°47'0 0.0
2017-Nov-24 06:59N 44°44' E 037°47'0 0.0
2017-Nov-24 06:29N 44°44' E 037°47'0 0.0
2017-Nov-24 05:59N 44°44' E 037°47'0 0.0
2017-Nov-24 05:29N 44°44' E 037°47'0 0.0
2017-Nov-24 05:00N 44°44' E 037°47'0 0.0
2017-Nov-24 04:30N 44°44' E 037°47'0 0.0
2017-Nov-24 03:59N 44°44' E 037°47'0 0.0
2017-Nov-24 03:30N 44°44' E 037°47'0 0.0
2017-Nov-24 02:59N 44°44' E 037°47'0 0.0
2017-Nov-24 02:30N 44°44' E 037°47'0 0.0
2017-Nov-24 02:00N 44°44' E 037°47'0 0.0
2017-Nov-24 01:29N 44°44' E 037°47'0 0.0
2017-Nov-24 00:59N 44°44' E 037°47'0 0.0
2017-Nov-24 00:29N 44°44' E 037°47'0 0.0
2017-Nov-24 00:00N 44°44' E 037°47'0 0.0
2017-Nov-23 23:29N 44°44' E 037°47'0 0.0
2017-Nov-23 23:00N 44°44' E 037°47'0 0.0
2017-Nov-23 22:30N 44°44' E 037°47'0 0.0
2017-Nov-23 22:00N 44°44' E 037°47'0 0.0
2017-Nov-23 21:29N 44°44' E 037°47'0 0.0
2017-Nov-23 21:00N 44°44' E 037°47'0 0.0
2017-Nov-23 20:30N 44°44' E 037°47'0 0.0
2017-Nov-23 19:59N 44°44' E 037°47'0 0.0
2017-Nov-23 19:30N 44°44' E 037°47'0 0.0
2017-Nov-23 18:59N 44°44' E 037°47'0 0.0
2017-Nov-23 18:29N 44°44' E 037°47'0 0.0
2017-Nov-23 17:59N 44°44' E 037°47'0 0.0
2017-Nov-23 17:30N 44°44' E 037°47'0 0.0
2017-Nov-23 17:00N 44°44' E 037°47'0 0.0
2017-Nov-23 16:30N 44°44' E 037°47'0 0.0
2017-Nov-23 16:00N 44°44' E 037°47'0 0.0
2017-Nov-23 15:30N 44°44' E 037°47'0 0.0
2017-Nov-23 15:00N 44°44' E 037°47'0 0.0
2017-Nov-23 14:23N 44°44' E 037°47'0 0.0
2017-Nov-23 14:00N 44°44' E 037°47'0 0.0
2017-Nov-23 13:30N 44°44' E 037°47'0 0.0
2017-Nov-23 12:59N 44°44' E 037°47'0 0.0
2017-Nov-23 12:30N 44°44' E 037°47'0 0.0
2017-Nov-23 12:00N 44°44' E 037°47'0 0.0
2017-Nov-23 11:29N 44°44' E 037°47'0 0.0
2017-Nov-23 10:59N 44°44' E 037°47'0 0.0
2017-Nov-23 10:30N 44°44' E 037°47'0 0.0
2017-Nov-23 09:59N 44°44' E 037°47'0 0.0
2017-Nov-23 09:30N 44°44' E 037°47'0 0.0
2017-Nov-23 08:59N 44°44' E 037°47'0 0.0
2017-Nov-23 08:30N 44°44' E 037°47'0 0.0
2017-Nov-23 08:00N 44°44' E 037°47'0 0.0
2017-Nov-23 07:29N 44°44' E 037°47'0 0.0
2017-Nov-23 06:59N 44°44' E 037°47'0 0.0
2017-Nov-23 06:29N 44°44' E 037°47'0 0.0
2017-Nov-23 06:00N 44°44' E 037°47'0 0.0
2017-Nov-23 05:30N 44°44' E 037°47'0 0.0
2017-Nov-23 05:00N 44°44' E 037°47'0 0.0
2017-Nov-23 04:30N 44°44' E 037°47'0 0.0
2017-Nov-23 03:59N 44°44' E 037°47'0 0.0
2017-Nov-23 03:29N 44°44' E 037°47'0 0.0
2017-Nov-23 03:00N 44°44' E 037°47'0 0.0
2017-Nov-23 02:30N 44°44' E 037°47'0 0.0
2017-Nov-23 01:59N 44°44' E 037°47'0 0.0
2017-Nov-23 01:29N 44°44' E 037°47'0 0.0
2017-Nov-23 01:00N 44°44' E 037°47'0 0.0
2017-Nov-23 00:30N 44°44' E 037°47'0 0.0
2017-Nov-23 00:00N 44°44' E 037°47'0 0.0
2017-Nov-22 23:30N 44°44' E 037°47'0 0.0
2017-Nov-22 23:00N 44°44' E 037°47'0 0.0
2017-Nov-22 22:30N 44°44' E 037°47'0 0.0
2017-Nov-22 21:59N 44°44' E 037°47'0 0.0
2017-Nov-22 21:30N 44°44' E 037°47'0 0.0
2017-Nov-22 20:59N 44°44' E 037°47'0 0.0
2017-Nov-22 20:29N 44°44' E 037°47'0 0.0
2017-Nov-22 19:59N 44°44' E 037°47'0 0.0
2017-Nov-22 19:29N 44°44' E 037°47'  
Track history (hours):
 
Tides and Currents Weather Stations Pressure Air Temp Water Temp Dewpoint Dewpoint Depression Visibility Wind Speed Wind Dir Waves Ship Positions

Mercury Ocean

Last reported at 2017-Nov-29 08:06 UTC. Time now 2018-Feb-21 19:38 UTC.
Position N 36°15' E 027°00'.
Warning: this ship's position is months out of date.

Length 190 m; draft 12.3 m.

Type: Cargo ship. MMSI: 370149000.

Date/timePositionNaut miles runAvg speedWind from/ knotsBaromVisibWave heightAir tempDewpointWater temp
2017-Nov-29 08:06N 36°15' E 027°00'112.3
2017-Nov-29 08:00N 36°16' E 026°59'812.1
2017-Nov-29 07:19N 36°22' E 026°52'411.9
2017-Nov-29 06:59N 36°25' E 026°49'611.8
2017-Nov-29 06:30N 36°29' E 026°44'612.0
2017-Nov-29 06:00N 36°33' E 026°39'612.2
2017-Nov-29 05:30N 36°38' E 026°34'612.1
2017-Nov-29 05:00N 36°42' E 026°29'612.1
2017-Nov-29 04:30N 36°47' E 026°24'612.2
2017-Nov-29 03:59N 36°52' E 026°19'612.2
2017-Nov-29 03:30N 36°56' E 026°14'612.4
2017-Nov-29 03:00N 36°60' E 026°08'612.1
2017-Nov-29 02:30N 37°04' E 026°03'612.2
2017-Nov-29 02:00N 37°08' E 025°57'612.5
2017-Nov-29 01:30N 37°12' E 025°51'611.7
2017-Nov-29 01:00N 37°18' E 025°50'612.2
2017-Nov-29 00:30N 37°24' E 025°50'612.2
2017-Nov-29 00:00N 37°30' E 025°49'611.9
2017-Nov-28 23:30N 37°36' E 025°49'611.7
2017-Nov-28 22:59N 37°42' E 025°49'611.9
2017-Nov-28 22:30N 37°48' E 025°49'711.9
2017-Nov-28 21:57N 37°54' E 025°46'  
2017-Nov-25 22:15N 44°24' E 037°18'411.9
2017-Nov-25 21:56N 44°25' E 037°23'511.8
2017-Nov-25 21:30N 44°28' E 037°29'612.0
2017-Nov-25 21:00N 44°30' E 037°37'612.1
2017-Nov-25 20:31N 44°34' E 037°44'611.4
2017-Nov-25 20:00N 44°38' E 037°49'3 5.8
2017-Nov-25 19:30N 44°40' E 037°51'0 0.3
2017-Nov-25 18:59N 44°41' E 037°51'0 0.0
2017-Nov-25 18:29N 44°41' E 037°51'0 0.0
2017-Nov-25 17:59N 44°41' E 037°51'0 0.0
2017-Nov-25 17:29N 44°41' E 037°51'0 0.0
2017-Nov-25 16:59N 44°41' E 037°51'0 0.0
2017-Nov-25 16:29N 44°41' E 037°51'0 0.0
2017-Nov-25 15:59N 44°41' E 037°51'0 0.0
2017-Nov-25 15:29N 44°41' E 037°51'0 0.0
2017-Nov-25 14:59N 44°41' E 037°51'0 0.0
2017-Nov-25 14:29N 44°41' E 037°51'0 0.0
2017-Nov-25 13:59N 44°41' E 037°51'0 0.0
2017-Nov-25 13:29N 44°41' E 037°51'0 0.0
2017-Nov-25 12:59N 44°41' E 037°51'0 0.0
2017-Nov-25 12:29N 44°41' E 037°51'0 0.0
2017-Nov-25 11:59N 44°41' E 037°51'0 0.0
2017-Nov-25 11:29N 44°41' E 037°51'0 0.0
2017-Nov-25 10:59N 44°41' E 037°51'0 0.1
2017-Nov-25 10:29N 44°41' E 037°51'0 0.2
2017-Nov-25 09:59N 44°41' E 037°51'0 0.2
2017-Nov-25 09:29N 44°40' E 037°51'0 0.1
2017-Nov-25 08:59N 44°40' E 037°51'0 0.0
2017-Nov-25 08:29N 44°40' E 037°51'0 0.0
2017-Nov-25 07:59N 44°40' E 037°51'0 0.0
2017-Nov-25 07:29N 44°40' E 037°51'0 0.0
2017-Nov-25 06:59N 44°40' E 037°51'0 0.0
2017-Nov-25 06:29N 44°40' E 037°51'0 0.1
2017-Nov-25 05:59N 44°40' E 037°51'0 0.1
2017-Nov-25 05:29N 44°40' E 037°51'0 0.2
2017-Nov-25 04:59N 44°40' E 037°51'0 0.1
2017-Nov-25 04:29N 44°41' E 037°51'0 0.2
2017-Nov-25 03:59N 44°41' E 037°51'0 0.1
2017-Nov-25 03:30N 44°41' E 037°51'1 2.0
2017-Nov-25 03:01N 44°41' E 037°50'3 5.4
2017-Nov-25 02:30N 44°44' E 037°48'1 1.0
2017-Nov-25 01:59N 44°44' E 037°47'0 0.0
2017-Nov-25 01:30N 44°44' E 037°47'0 0.0
2017-Nov-25 01:00N 44°44' E 037°47'0 0.0
2017-Nov-25 00:27N 44°44' E 037°47'0 0.0
2017-Nov-25 00:00N 44°44' E 037°47'0 0.0
2017-Nov-24 23:29N 44°44' E 037°47'0 0.0
2017-Nov-24 22:56N 44°44' E 037°47'0 0.0
2017-Nov-24 22:30N 44°44' E 037°47'0 0.0
2017-Nov-24 21:59N 44°44' E 037°47'0 0.0
2017-Nov-24 21:29N 44°44' E 037°47'0 0.0
2017-Nov-24 21:00N 44°44' E 037°47'0 0.0
2017-Nov-24 20:30N 44°44' E 037°47'0 0.0
2017-Nov-24 19:59N 44°44' E 037°47'0 0.0
2017-Nov-24 19:29N 44°44' E 037°47'0 0.0
2017-Nov-24 18:59N 44°44' E 037°47'0 0.0
2017-Nov-24 18:29N 44°44' E 037°47'0 0.0
2017-Nov-24 17:56N 44°44' E 037°47'0 0.0
2017-Nov-24 17:29N 44°44' E 037°47'0 0.0
2017-Nov-24 16:59N 44°44' E 037°47'0 0.0
2017-Nov-24 16:29N 44°44' E 037°47'0 0.0
2017-Nov-24 16:00N 44°44' E 037°47'0 0.0
2017-Nov-24 15:29N 44°44' E 037°47'0 0.0
2017-Nov-24 14:59N 44°44' E 037°47'0 0.0
2017-Nov-24 14:30N 44°44' E 037°47'0 0.0
2017-Nov-24 13:59N 44°44' E 037°47'0 0.0
2017-Nov-24 13:29N 44°44' E 037°47'0 0.0
2017-Nov-24 12:59N 44°44' E 037°47'0 0.0
2017-Nov-24 12:30N 44°44' E 037°47'0 0.0
2017-Nov-24 12:00N 44°44' E 037°47'0 0.0
2017-Nov-24 11:29N 44°44' E 037°47'0 0.0
2017-Nov-24 11:00N 44°44' E 037°47'0 0.0
2017-Nov-24 10:30N 44°44' E 037°47'0 0.0
2017-Nov-24 09:59N 44°44' E 037°47'0 0.0
2017-Nov-24 09:29N 44°44' E 037°47'0 0.0
2017-Nov-24 09:00N 44°44' E 037°47'0 0.0
2017-Nov-24 08:30N 44°44' E 037°47'0 0.0
2017-Nov-24 07:59N 44°44' E 037°47'0 0.0
2017-Nov-24 07:30N 44°44' E 037°47'0 0.0
2017-Nov-24 06:59N 44°44' E 037°47'0 0.0
2017-Nov-24 06:29N 44°44' E 037°47'0 0.0
2017-Nov-24 05:59N 44°44' E 037°47'0 0.0
2017-Nov-24 05:29N 44°44' E 037°47'0 0.0
2017-Nov-24 05:00N 44°44' E 037°47'0 0.0
2017-Nov-24 04:30N 44°44' E 037°47'0 0.0
2017-Nov-24 03:59N 44°44' E 037°47'0 0.0
2017-Nov-24 03:30N 44°44' E 037°47'0 0.0
2017-Nov-24 02:59N 44°44' E 037°47'0 0.0
2017-Nov-24 02:30N 44°44' E 037°47'0 0.0
2017-Nov-24 02:00N 44°44' E 037°47'0 0.0
2017-Nov-24 01:29N 44°44' E 037°47'0 0.0
2017-Nov-24 00:59N 44°44' E 037°47'0 0.0
2017-Nov-24 00:29N 44°44' E 037°47'0 0.0
2017-Nov-24 00:00N 44°44' E 037°47'0 0.0
2017-Nov-23 23:29N 44°44' E 037°47'0 0.0
2017-Nov-23 23:00N 44°44' E 037°47'0 0.0
2017-Nov-23 22:30N 44°44' E 037°47'0 0.0
2017-Nov-23 22:00N 44°44' E 037°47'0 0.0
2017-Nov-23 21:29N 44°44' E 037°47'0 0.0
2017-Nov-23 21:00N 44°44' E 037°47'0 0.0
2017-Nov-23 20:30N 44°44' E 037°47'0 0.0
2017-Nov-23 19:59N 44°44' E 037°47'0 0.0
2017-Nov-23 19:30N 44°44' E 037°47'0 0.0
2017-Nov-23 18:59N 44°44' E 037°47'0 0.0
2017-Nov-23 18:29N 44°44' E 037°47'0 0.0
2017-Nov-23 17:59N 44°44' E 037°47'0 0.0
2017-Nov-23 17:30N 44°44' E 037°47'0 0.0
2017-Nov-23 17:00N 44°44' E 037°47'0 0.0
2017-Nov-23 16:30N 44°44' E 037°47'0 0.0
2017-Nov-23 16:00N 44°44' E 037°47'0 0.0
2017-Nov-23 15:30N 44°44' E 037°47'0 0.0
2017-Nov-23 15:00N 44°44' E 037°47'0 0.0
2017-Nov-23 14:23N 44°44' E 037°47'0 0.0
2017-Nov-23 14:00N 44°44' E 037°47'0 0.0
2017-Nov-23 13:30N 44°44' E 037°47'0 0.0
2017-Nov-23 12:59N 44°44' E 037°47'0 0.0
2017-Nov-23 12:30N 44°44' E 037°47'0 0.0
2017-Nov-23 12:00N 44°44' E 037°47'0 0.0
2017-Nov-23 11:29N 44°44' E 037°47'0 0.0
2017-Nov-23 10:59N 44°44' E 037°47'0 0.0
2017-Nov-23 10:30N 44°44' E 037°47'0 0.0
2017-Nov-23 09:59N 44°44' E 037°47'0 0.0
2017-Nov-23 09:30N 44°44' E 037°47'0 0.0
2017-Nov-23 08:59N 44°44' E 037°47'0 0.0
2017-Nov-23 08:30N 44°44' E 037°47'0 0.0
2017-Nov-23 08:00N 44°44' E 037°47'0 0.0
2017-Nov-23 07:29N 44°44' E 037°47'0 0.0
2017-Nov-23 06:59N 44°44' E 037°47'0 0.0
2017-Nov-23 06:29N 44°44' E 037°47'0 0.0
2017-Nov-23 06:00N 44°44' E 037°47'0 0.0
2017-Nov-23 05:30N 44°44' E 037°47'0 0.0
2017-Nov-23 05:00N 44°44' E 037°47'0 0.0
2017-Nov-23 04:30N 44°44' E 037°47'0 0.0
2017-Nov-23 03:59N 44°44' E 037°47'0 0.0
2017-Nov-23 03:29N 44°44' E 037°47'0 0.0
2017-Nov-23 03:00N 44°44' E 037°47'0 0.0
2017-Nov-23 02:30N 44°44' E 037°47'0 0.0
2017-Nov-23 01:59N 44°44' E 037°47'0 0.0
2017-Nov-23 01:29N 44°44' E 037°47'0 0.0
2017-Nov-23 01:00N 44°44' E 037°47'0 0.0
2017-Nov-23 00:30N 44°44' E 037°47'0 0.0
2017-Nov-23 00:00N 44°44' E 037°47'0 0.0
2017-Nov-22 23:30N 44°44' E 037°47'0 0.0
2017-Nov-22 23:00N 44°44' E 037°47'0 0.0
2017-Nov-22 22:30N 44°44' E 037°47'0 0.0
2017-Nov-22 21:59N 44°44' E 037°47'0 0.0
2017-Nov-22 21:30N 44°44' E 037°47'0 0.0
2017-Nov-22 20:59N 44°44' E 037°47'0 0.0
2017-Nov-22 20:29N 44°44' E 037°47'0 0.0
2017-Nov-22 19:59N 44°44' E 037°47'0 0.0
2017-Nov-22 19:29N 44°44' E 037°47'  

Dump ship's entire track history